• Join FlightAware (Why Join?)
  • Login
  • US Flag 
12:20PM EDT


 

Airport Tracker/Info


-or-


 

Live Flight TrackerFlight Track Log ✈ N543PU ✈ 12-May-2013 ✈ KMDW - KLAF

Flight Track Log - Related Links

Times and Time Zones

All times are in EDT time to prevent confusion due to time zone crossing. See the N543PU flight status page for this flight to view local times or setup timezone preferences in your user account.

Time Position Orientation Groundspeed Altitude Reporting Facility
EDT Latitude Longitude Course Direction KTS MPH feet Rate Location/Type
01:58PM 41.7833 -87.7833 217° Southwest 95 109 1,600  Level Chicago TRACON
01:59PM 41.7667 -87.8000 217° Southwest 91 105 2,400 720 Climbing Chicago TRACON
02:00PM 41.7500 -87.8167 217° Southwest 94 108 3,100 720 Climbing Chicago TRACON
02:01PM 41.7167 -87.8167 180° South 98 113 3,900 840 Climbing Chicago TRACON
02:02PM 41.7000 -87.8167 180° South 97 112 4,800 900 Climbing Chicago TRACON
02:03PM 41.6667 -87.8333 200° South 102 117 5,800 720 Climbing Chicago TRACON
02:05PM 41.6094 -87.8261 175° South 105 121 7,100 420 Climbing Chicago Center
02:06PM 41.5739 -87.8236 177° South 115 132 7,100 -60 Level Chicago Center
02:07PM 41.5311 -87.8225 179° South 137 158 7,000  Descending Chicago Center
02:08PM 41.4906 -87.8200 177° South 144 166 7,200 60 Climbing Chicago Center
02:09PM 41.4417 -87.8172 178° South 146 168 7,200 -60 Level Chicago Center
02:10PM 41.4008 -87.8003 163° South 153 176 7,100 -60 Descending Chicago Center
02:11PM 41.3583 -87.7917 171° South 154 177 7,100  Level Chicago Center
02:12PM 41.3164 -87.7928 181° South 151 174 7,100  Level Chicago Center
02:13PM 41.2789 -87.7769 162° South 163 188 7,100 -60 Level Chicago Center
02:14PM 41.2436 -87.7428 144° Southeast 158 182 7,000  Descending Chicago Center
02:15PM 41.2081 -87.7100 145° Southeast 157 181 7,100  Climbing Chicago Center
02:16PM 41.1681 -87.6678 142° Southeast 155 178 7,100  Level Chicago Center
02:17PM 41.1328 -87.6339 144° Southeast 155 178 7,100 -60 Level Chicago Center
02:18PM 41.0969 -87.6000 145° Southeast 158 182 7,000 -60 Descending Chicago Center
02:19PM 41.0606 -87.5656 144° Southeast 160 184 7,000 60 Level Chicago Center
02:20PM 41.0472 -87.5525 144° Southeast 159 183 7,100 60 Climbing Chicago Center
02:20PM 41.0267 -87.5328 144° Southeast 155 178 7,100  Level Chicago Center
02:21PM 40.9925 -87.4961 141° Southeast 157 181 7,100  Level Chicago Center
02:22PM 40.9533 -87.4544 141° Southeast 154 177 7,200 -300 Climbing Chicago Center
02:23PM 40.9236 -87.4100 132° Southeast 158 182 6,500 -600 Descending Chicago Center
02:25PM 40.8928 -87.3561 127° Southeast 161 185 6,000 -480 Descending Chicago Center
02:26PM 40.8697 -87.3164 127° Southeast 160 184 5,600 -240 Descending Chicago Center
02:27PM 40.8336 -87.2903 151° Southeast 153 176 5,600  Level Chicago Center
02:28PM 40.7972 -87.2608 149° Southeast 153 176 5,600  Level Chicago Center
02:29PM 40.7519 -87.2231 148° Southeast 157 181 5,600  Level Chicago Center
02:30PM 40.7161 -87.1914 146° Southeast 157 181 5,600  Level Chicago Center
02:31PM 40.6775 -87.1622 150° Southeast 154 177 5,600  Level Chicago Center
02:32PM 40.6486 -87.1311 141° Southeast 152 175 5,600  Level Chicago Center